KDAN/DAN METAR and TAF weather

Enter ICAO airport designator
Station Type Date Time Source
KDAN METAR 2018/12/13 14:53 UTC NOAA

KDAN 131453Z AUTO 20004KT 10SM BKN070 OVC090 02/M02 A3031 RMK AO2 SLP263 T00221017 51026


Station Type Date Time Source
KDAN Decoded METAR 2018/12/13 14:53 UTC NOAA

DANVILLE REGIONAL AIRPORT, VA, United States (KDAN) 36-34N 079-20W 175M
Dec 13, 2018 - 09:53 AM EST / 2018.12.13 1453 UTC
Wind: from the SSW (200 degrees) at 5 MPH (4 KT):0
Visibility: 10 mile(s):0
Sky conditions: overcast
Temperature: 36.0 F (2.2 C)
Dew Point: 28.9 F (-1.7 C)
Relative Humidity: 75%
Pressure (altimeter): 30.31 in. Hg (1026 hPa)
Pressure tendency: 0.08 inches (2.6 hPa) higher than three hours ago
ob: KDAN 131453Z AUTO 20004KT 10SM BKN070 OVC090 02/M02 A3031 RMK AO2 SLP263 T00221017 51026
cycle: 15

Station Type Date Time Source
KDAN TAF 2018/12/13 12:36 UTC NOAA

TAF KDAN 131133Z 1312/1412 00000KT P6SM OVC050
FM140000 VRB03KT P6SM BKN030
FM140900 00000KT P6SM OVC010


Example: see airport list